LSZA Airport Information

Runway Information
Runway 01 Length 4429 ft width 98 ft
Elevation 896 ft Threshold 361 ft Heading 19
Runway 19 Length 4429 ft Width 98 ft
Elevation 915 ft Threshold 672 ft Heading 199
Airport Frequencies
Type ATIS Name ATIS Frequency 121.175 MHZ
Type GND Name GND Frequency 121.775 MHZ
Type TWR Name TWR Frequency 120.25 MHZ
Airport Navaids
Airport Weather Information & NOTAM
ADDS - METARS form results

(1408 UTC 25 May 2019)
Data provider http://aviationweather.gov/metar/data/
 
METAR text: LSZA 251350Z VRB02KT 9000 RA FEW055TCU OVC080 16/14 Q1016 NOSIG
Conditions at: LSZA (LUGANO (PVT/AUT), CH) observed 1350 UTC 25 May 2019
Temperature: 16.0°C (61°F)
Dewpoint: 14.0°C (57°F) [RH = 88%]
Pressure (altimeter): 30.00 inches Hg (1016.0 mb)
Winds: variable direction winds at 2 MPH (2 knots; 1.0 m/s)
Visibility: 6 miles ( 9 km)
Ceiling: 8000 feet AGL
Clouds: few clouds at 5500 feet AGL
overcast cloud deck at 8000 feet AGL
Weather: RA  (moderate rain)

METAR text: LSZA 251320Z VRB02KT 9999 -RA VCTS FEW050CB BKN080 15/14 Q1015 NOSIG
Conditions at: LSZA (LUGANO (PVT/AUT), CH) observed 1320 UTC 25 May 2019
Temperature: 15.0°C (59°F)
Dewpoint: 14.0°C (57°F) [RH = 94%]
Pressure (altimeter): 29.97 inches Hg (1015.0 mb)
Winds: variable direction winds at 2 MPH (2 knots; 1.0 m/s)
Visibility: 6 or more miles (10+ km)
Ceiling: 8000 feet AGL
Clouds: few clouds at 5000 feet AGL
broken clouds at 8000 feet AGL
Weather: -RA VCTS  (light rain, thunderstorm in vicinity)

Forecast for: LSZA (LUGANO (PVT/AUT), CH)
Text: TAF LSZA 251125Z 2512/2521 VRB04KT 9999 FEW060 BKN090
Forecast period: 1200 to 2100 UTC 25 May 2019
Forecast type: FROM: standard forecast or significant change
Winds: variable direction winds at 5 MPH (4 knots; 2.1 m/s)
Visibility: 6 or more miles 10+ km)
Ceiling: 9000 feet AGL
Clouds: few clouds at 6000 feet AGL
broken clouds at 9000 feet AGL
Weather: no significant weather forecast for this period
Text: TEMPO 2512/2521 SHRA SCT050TCU
Forecast period: 1200 to 2100 UTC 25 May 2019
Forecast type: TEMPORARY: The following changes expected for less than half the time period
Visibility: missing
Ceiling: at least 12,000 feet AGL
Clouds: scattered clouds at 5000 feet AGL
Weather: SHRA  (rain showers)
Text: TEMPO 2512/2521 01015G25KT TSRA SCT040CB
Forecast period: 1200 to 2100 UTC 25 May 2019
Forecast type: TEMPORARY: The following changes expected for less than half the time period
Winds: from the N (10 degrees) at 17 MPH (15 knots; 7.7 m/s)
gusting to 29 MPH (25 knots; 12.9 m/s)
Visibility: missing
Ceiling: at least 12,000 feet AGL
Clouds: scattered clouds at 4000 feet AGL
Weather: TSRA  (rain associated with thunderstorm(s))